sensor_id;sensor_type;location;lat;lon;timestamp;pressure;altitude;pressure_sealevel;temperature;humidity
45345;BME280;31078;48.304;11.896;2023-08-01T00:01:09;72320.59;;;-145.00;56.42
45345;BME280;31078;48.304;11.896;2023-08-01T00:03:37;72322.69;;;-145.00;56.02
45345;BME280;31078;48.304;11.896;2023-08-01T00:06:03;72328.94;;;-145.00;56.11
45345;BME280;31078;48.304;11.896;2023-08-01T00:08:30;72333.09;;;-145.00;56.28
45345;BME280;31078;48.304;11.896;2023-08-01T00:10:56;72322.69;;;-145.00;56.35
45345;BME280;31078;48.304;11.896;2023-08-01T00:13:23;72318.53;;;-145.00;55.96
45345;BME280;31078;48.304;11.896;2023-08-01T00:15:49;72314.38;;;-145.00;55.77
45345;BME280;31078;48.304;11.896;2023-08-01T00:18:15;72306.03;;;-145.00;55.11
45345;BME280;31078;48.304;11.896;2023-08-01T00:20:43;72301.88;;;-145.00;55.02
45345;BME280;31078;48.304;11.896;2023-08-01T00:23:10;72297.72;;;-145.00;54.79
45345;BME280;31078;48.304;11.896;2023-08-01T00:25:36;72289.38;;;-145.00;54.63
45345;BME280;31078;48.304;11.896;2023-08-01T00:28:03;72289.38;;;-145.00;54.30
45345;BME280;31078;48.304;11.896;2023-08-01T00:30:30;72291.47;;;-145.00;53.57
45345;BME280;31078;48.304;11.896;2023-08-01T00:32:56;72285.22;;;-145.00;53.48
45345;BME280;31078;48.304;11.896;2023-08-01T00:35:23;72281.06;;;-145.00;52.71
45345;BME280;31078;48.304;11.896;2023-08-01T00:37:51;72268.56;;;-145.00;51.85
45345;BME280;31078;48.304;11.896;2023-08-01T00:40:17;72285.22;;;-145.00;50.80
45345;BME280;31078;48.304;11.896;2023-08-01T00:42:44;72266.50;;;-145.00;51.47
45345;BME280;31078;48.304;11.896;2023-08-01T00:45:11;72258.16;;;-145.00;51.31
45345;BME280;31078;48.304;11.896;2023-08-01T00:47:38;72251.91;;;-145.00;51.89
45345;BME280;31078;48.304;11.896;2023-08-01T00:50:05;72247.75;;;-145.00;51.83
45345;BME280;31078;48.304;11.896;2023-08-01T00:52:33;72245.69;;;-145.00;50.20
45345;BME280;31078;48.304;11.896;2023-08-01T00:55:04;72235.25;;;-145.00;50.41
45345;BME280;31078;48.304;11.896;2023-08-01T00:57:34;72235.25;;;-145.00;49.77
45345;BME280;31078;48.304;11.896;2023-08-01T01:00:00;72231.09;;;-145.00;49.99
45345;BME280;31078;48.304;11.896;2023-08-01T01:02:27;72220.69;;;-145.00;49.34
45345;BME280;31078;48.304;11.896;2023-08-01T01:04:53;72220.69;;;-145.00;49.76
45345;BME280;31078;48.304;11.896;2023-08-01T01:07:21;72222.78;;;-145.00;49.94
45345;BME280;31078;48.304;11.896;2023-08-01T01:09:50;72226.94;;;-145.00;50.90
45345;BME280;31078;48.304;11.896;2023-08-01T01:12:18;72256.09;;;-145.00;51.78
45345;BME280;31078;48.304;11.896;2023-08-01T01:14:44;72276.91;;;-145.00;52.24
45345;BME280;31078;48.304;11.896;2023-08-01T01:17:11;72285.22;;;-145.00;52.27
45345;BME280;31078;48.304;11.896;2023-08-01T01:19:37;72276.91;;;-145.00;53.05
45345;BME280;31078;48.304;11.896;2023-08-01T01:22:07;72281.06;;;-145.00;52.19
45345;BME280;31078;48.304;11.896;2023-08-01T01:24:35;72264.41;;;-145.00;52.33
45345;BME280;31078;48.304;11.896;2023-08-01T01:27:03;72251.91;;;-145.00;52.16
45345;BME280;31078;48.304;11.896;2023-08-01T01:29:32;72241.50;;;-145.00;51.34
45345;BME280;31078;48.304;11.896;2023-08-01T01:32:00;72239.44;;;-145.00;51.25
45345;BME280;31078;48.304;11.896;2023-08-01T01:34:27;72226.94;;;-145.00;51.98
45345;BME280;31078;48.304;11.896;2023-08-01T01:36:54;72222.78;;;-145.00;52.14
45345;BME280;31078;48.304;11.896;2023-08-01T01:39:22;72220.69;;;-145.00;52.04
45345;BME280;31078;48.304;11.896;2023-08-01T01:41:48;72210.28;;;-145.00;50.61
45345;BME280;31078;48.304;11.896;2023-08-01T01:44:17;72197.81;;;-145.00;50.40
45345;BME280;31078;48.304;11.896;2023-08-01T01:46:44;72206.13;;;-145.00;50.11
45345;BME280;31078;48.304;11.896;2023-08-01T01:49:11;72229.03;;;-145.00;51.34
45345;BME280;31078;48.304;11.896;2023-08-01T01:51:38;72220.69;;;-145.00;51.08
45345;BME280;31078;48.304;11.896;2023-08-01T01:54:04;72226.94;;;-145.00;50.49
45345;BME280;31078;48.304;11.896;2023-08-01T01:56:32;72254.00;;;-145.00;50.32
45345;BME280;31078;48.304;11.896;2023-08-01T01:59:01;72239.44;;;-145.00;50.55
45345;BME280;31078;48.304;11.896;2023-08-01T02:01:27;72222.78;;;-145.00;50.49
45345;BME280;31078;48.304;11.896;2023-08-01T02:03:53;72210.28;;;-145.00;50.96
45345;BME280;31078;48.304;11.896;2023-08-01T02:06:20;72201.97;;;-145.00;50.95
45345;BME280;31078;48.304;11.896;2023-08-01T02:08:46;72185.31;;;-145.00;51.38
45345;BME280;31078;48.304;11.896;2023-08-01T02:11:13;72185.31;;;-145.00;50.35
45345;BME280;31078;48.304;11.896;2023-08-01T02:13:41;72170.75;;;-145.00;48.94
45345;BME280;31078;48.304;11.896;2023-08-01T02:16:07;72206.13;;;-145.00;49.61
45345;BME280;31078;48.304;11.896;2023-08-01T02:18:34;72172.81;;;-145.00;49.60
45345;BME280;31078;48.304;11.896;2023-08-01T02:21:00;72158.25;;;-145.00;49.55
45345;BME280;31078;48.304;11.896;2023-08-01T02:23:27;72156.19;;;-145.00;49.43
45345;BME280;31078;48.304;11.896;2023-08-01T02:25:54;72149.94;;;-145.00;49.40
45345;BME280;31078;48.304;11.896;2023-08-01T02:28:20;72143.69;;;-145.00;49.09
45345;BME280;31078;48.304;11.896;2023-08-01T02:30:48;72135.34;;;-145.00;48.93
45345;BME280;31078;48.304;11.896;2023-08-01T02:33:16;72131.19;;;-145.00;49.05
45345;BME280;31078;48.304;11.896;2023-08-01T02:35:42;72129.13;;;-145.00;48.87
45345;BME280;31078;48.304;11.896;2023-08-01T02:38:08;72137.44;;;-145.00;49.20
45345;BME280;31078;48.304;11.896;2023-08-01T02:40:35;72129.13;;;-145.00;48.90
45345;BME280;31078;48.304;11.896;2023-08-01T02:43:01;72122.88;;;-145.00;48.94
45345;BME280;31078;48.304;11.896;2023-08-01T02:45:28;72118.72;;;-145.00;49.12
45345;BME280;31078;48.304;11.896;2023-08-01T02:47:56;72114.53;;;-145.00;48.03
45345;BME280;31078;48.304;11.896;2023-08-01T02:50:22;72112.47;;;-145.00;48.35
45345;BME280;31078;48.304;11.896;2023-08-01T02:52:49;72102.06;;;-145.00;48.57
45345;BME280;31078;48.304;11.896;2023-08-01T02:55:15;72102.06;;;-145.00;48.80
45345;BME280;31078;48.304;11.896;2023-08-01T02:57:43;72104.13;;;-145.00;48.13
45345;BME280;31078;48.304;11.896;2023-08-01T03:00:10;72097.91;;;-145.00;47.75
45345;BME280;31078;48.304;11.896;2023-08-01T03:02:37;72108.31;;;-145.00;48.19
45345;BME280;31078;48.304;11.896;2023-08-01T03:05:07;72102.06;;;-145.00;48.18
45345;BME280;31078;48.304;11.896;2023-08-01T03:07:34;72110.38;;;-145.00;48.62
45345;BME280;31078;48.304;11.896;2023-08-01T03:10:02;72131.19;;;-145.00;48.44
45345;BME280;31078;48.304;11.896;2023-08-01T03:12:28;72156.19;;;-145.00;48.96
45345;BME280;31078;48.304;11.896;2023-08-01T03:14:56;72135.34;;;-145.00;48.52
45345;BME280;31078;48.304;11.896;2023-08-01T03:17:22;72131.19;;;-145.00;48.40
45345;BME280;31078;48.304;11.896;2023-08-01T03:19:49;72160.34;;;-145.00;49.37
45345;BME280;31078;48.304;11.896;2023-08-01T03:22:17;72168.66;;;-145.00;49.75
45345;BME280;31078;48.304;11.896;2023-08-01T03:24:43;72185.31;;;-145.00;50.51
45345;BME280;31078;48.304;11.896;2023-08-01T03:27:10;72214.44;;;-145.00;51.81
45345;BME280;31078;48.304;11.896;2023-08-01T03:29:36;72264.41;;;-145.00;53.63
45345;BME280;31078;48.304;11.896;2023-08-01T03:32:04;72318.53;;;-145.00;55.17
45345;BME280;31078;48.304;11.896;2023-08-01T03:34:30;72326.84;;;-145.00;55.65
45345;BME280;31078;48.304;11.896;2023-08-01T03:36:57;72343.50;;;-145.00;57.13
45345;BME280;31078;48.304;11.896;2023-08-01T03:39:25;72328.94;;;-145.00;57.95
45345;BME280;31078;48.304;11.896;2023-08-01T03:41:51;72351.84;;;-145.00;60.20
45345;BME280;31078;48.304;11.896;2023-08-01T03:44:18;72368.47;;;-145.00;60.24
45345;BME280;31078;48.304;11.896;2023-08-01T03:46:44;72383.06;;;-145.00;60.58
45345;BME280;31078;48.304;11.896;2023-08-01T03:49:12;72383.06;;;-145.00;60.62
45345;BME280;31078;48.304;11.896;2023-08-01T03:51:39;72383.06;;;-145.00;59.91
45345;BME280;31078;48.304;11.896;2023-08-01T03:54:05;72405.94;;;-145.00;60.20
45345;BME280;31078;48.304;11.896;2023-08-01T03:56:33;72405.94;;;-145.00;60.63
45345;BME280;31078;48.304;11.896;2023-08-01T03:59:00;72401.78;;;-145.00;60.44
45345;BME280;31078;48.304;11.896;2023-08-01T04:01:29;72414.28;;;-145.00;61.12
45345;BME280;31078;48.304;11.896;2023-08-01T04:03:56;72403.88;;;-145.00;62.17
45345;BME280;31078;48.304;11.896;2023-08-01T04:06:22;72393.47;;;-145.00;61.88
45345;BME280;31078;48.304;11.896;2023-08-01T04:08:49;72385.13;;;-145.00;61.67
45345;BME280;31078;48.304;11.896;2023-08-01T04:11:16;72410.13;;;-145.00;62.03
45345;BME280;31078;48.304;11.896;2023-08-01T04:13:44;72422.59;;;-145.00;62.77
45345;BME280;31078;48.304;11.896;2023-08-01T04:16:11;72430.94;;;-145.00;63.85
45345;BME280;31078;48.304;11.896;2023-08-01T04:18:37;72437.19;;;-145.00;64.74
45345;BME280;31078;48.304;11.896;2023-08-01T04:21:04;72441.34;;;-145.00;64.97
45345;BME280;31078;48.304;11.896;2023-08-01T04:23:31;72464.22;;;-145.00;65.85
45345;BME280;31078;48.304;11.896;2023-08-01T04:25:58;72489.22;;;-145.00;67.22
45345;BME280;31078;48.304;11.896;2023-08-01T04:28:24;72472.56;;;-145.00;67.80
45345;BME280;31078;48.304;11.896;2023-08-01T04:30:52;72472.56;;;-145.00;68.12
45345;BME280;31078;48.304;11.896;2023-08-01T04:33:19;72460.06;;;-145.00;68.35
45345;BME280;31078;48.304;11.896;2023-08-01T04:35:45;72470.47;;;-145.00;69.08
45345;BME280;31078;48.304;11.896;2023-08-01T04:38:12;72495.47;;;-145.00;70.09
45345;BME280;31078;48.304;11.896;2023-08-01T04:40:38;72510.03;;;-145.00;71.39
45345;BME280;31078;48.304;11.896;2023-08-01T04:43:05;72487.13;;;-145.00;70.97
45345;BME280;31078;48.304;11.896;2023-08-01T04:45:31;72487.13;;;-145.00;71.33
45345;BME280;31078;48.304;11.896;2023-08-01T04:47:59;72499.63;;;-145.00;71.76
45345;BME280;31078;48.304;11.896;2023-08-01T04:50:26;72495.47;;;-145.00;72.05
45345;BME280;31078;48.304;11.896;2023-08-01T04:52:52;72518.34;;;-145.00;72.96
45345;BME280;31078;48.304;11.896;2023-08-01T04:55:19;72539.16;;;-145.00;73.64
45345;BME280;31078;48.304;11.896;2023-08-01T04:57:45;72553.75;;;-145.00;74.43
45345;BME280;31078;48.304;11.896;2023-08-01T05:00:12;72551.66;;;-145.00;74.92
45345;BME280;31078;48.304;11.896;2023-08-01T05:02:39;72524.59;;;-145.00;74.57
45345;BME280;31078;48.304;11.896;2023-08-01T05:05:08;72516.28;;;-145.00;75.11
45345;BME280;31078;48.304;11.896;2023-08-01T05:07:34;72520.44;;;-145.00;76.07
45345;BME280;31078;48.304;11.896;2023-08-01T05:10:01;72520.44;;;-145.00;76.82
45345;BME280;31078;48.304;11.896;2023-08-01T05:12:27;72497.53;;;-145.00;76.64
45345;BME280;31078;48.304;11.896;2023-08-01T05:14:54;72493.38;;;-145.00;76.63
45345;BME280;31078;48.304;11.896;2023-08-01T05:17:21;72482.97;;;-145.00;76.91
45345;BME280;31078;48.304;11.896;2023-08-01T05:19:48;72485.06;;;-145.00;77.11
45345;BME280;31078;48.304;11.896;2023-08-01T05:22:16;72474.63;;;-145.00;77.49
45345;BME280;31078;48.304;11.896;2023-08-01T05:24:43;72468.41;;;-145.00;78.15
45345;BME280;31078;48.304;11.896;2023-08-01T05:27:09;72468.41;;;-145.00;78.01
45345;BME280;31078;48.304;11.896;2023-08-01T05:29:36;72468.41;;;-145.00;78.34
45345;BME280;31078;48.304;11.896;2023-08-01T05:32:03;72472.56;;;-145.00;78.43
45345;BME280;31078;48.304;11.896;2023-08-01T05:34:29;72474.63;;;-145.00;77.82
45345;BME280;31078;48.304;11.896;2023-08-01T05:36:56;72468.41;;;-145.00;78.15
45345;BME280;31078;48.304;11.896;2023-08-01T05:39:23;72468.41;;;-145.00;78.53
45345;BME280;31078;48.304;11.896;2023-08-01T05:41:50;72468.41;;;-145.00;78.98
45345;BME280;31078;48.304;11.896;2023-08-01T05:44:17;72476.72;;;-145.00;79.30
45345;BME280;31078;48.304;11.896;2023-08-01T05:46:43;72468.41;;;-145.00;79.42
45345;BME280;31078;48.304;11.896;2023-08-01T05:49:10;72464.22;;;-145.00;79.15
45345;BME280;31078;48.304;11.896;2023-08-01T05:51:36;72493.38;;;-145.00;80.48
45345;BME280;31078;48.304;11.896;2023-08-01T05:54:03;72476.72;;;-145.00;80.02
45345;BME280;31078;48.304;11.896;2023-08-01T05:56:31;72460.06;;;-145.00;79.92
45345;BME280;31078;48.304;11.896;2023-08-01T05:58:57;72464.22;;;-145.00;80.16
45345;BME280;31078;48.304;11.896;2023-08-01T06:01:24;72485.06;;;-145.00;80.56
45345;BME280;31078;48.304;11.896;2023-08-01T06:03:51;72505.88;;;-145.00;80.90
45345;BME280;31078;48.304;11.896;2023-08-01T06:06:20;72514.19;;;-145.00;81.50
45345;BME280;31078;48.304;11.896;2023-08-01T06:08:46;72503.78;;;-145.00;81.48
45345;BME280;31078;48.304;11.896;2023-08-01T06:11:13;72499.63;;;-145.00;81.95
45345;BME280;31078;48.304;11.896;2023-08-01T06:13:41;72472.56;;;-145.00;81.23
45345;BME280;31078;48.304;11.896;2023-08-01T06:16:08;72443.41;;;-145.00;80.37
45345;BME280;31078;48.304;11.896;2023-08-01T06:18:35;72439.25;;;-145.00;79.60
45345;BME280;31078;48.304;11.896;2023-08-01T06:21:02;72435.09;;;-145.00;79.90
45345;BME280;31078;48.304;11.896;2023-08-01T06:23:28;72420.53;;;-145.00;79.58
45345;BME280;31078;48.304;11.896;2023-08-01T06:25:55;72420.53;;;-145.00;79.57
45345;BME280;31078;48.304;11.896;2023-08-01T06:28:21;72412.19;;;-145.00;79.09
45345;BME280;31078;48.304;11.896;2023-08-01T06:30:49;72401.78;;;-145.00;78.95
45345;BME280;31078;48.304;11.896;2023-08-01T06:33:16;72393.47;;;-145.00;78.21
45345;BME280;31078;48.304;11.896;2023-08-01T06:35:43;72378.88;;;-145.00;78.18
45345;BME280;31078;48.304;11.896;2023-08-01T06:38:09;72389.28;;;-145.00;78.62
45345;BME280;31078;48.304;11.896;2023-08-01T06:40:36;72383.06;;;-145.00;78.57
45345;BME280;31078;48.304;11.896;2023-08-01T06:43:02;72374.72;;;-145.00;77.82
45345;BME280;31078;48.304;11.896;2023-08-01T06:45:29;72362.25;;;-145.00;76.83
45345;BME280;31078;48.304;11.896;2023-08-01T06:47:57;72353.91;;;-145.00;77.22
45345;BME280;31078;48.304;11.896;2023-08-01T06:50:24;72358.06;;;-145.00;76.88
45345;BME280;31078;48.304;11.896;2023-08-01T06:52:50;72362.25;;;-145.00;75.14
45345;BME280;31078;48.304;11.896;2023-08-01T06:55:17;72368.47;;;-145.00;75.50
45345;BME280;31078;48.304;11.896;2023-08-01T06:57:43;72356.00;;;-145.00;75.07
45345;BME280;31078;48.304;11.896;2023-08-01T07:00:11;72383.06;;;-145.00;74.83
45345;BME280;31078;48.304;11.896;2023-08-01T07:02:37;72401.78;;;-145.00;77.15
45345;BME280;31078;48.304;11.896;2023-08-01T07:05:06;72393.47;;;-145.00;77.11
45345;BME280;31078;48.304;11.896;2023-08-01T07:07:33;72372.66;;;-145.00;76.60
45345;BME280;31078;48.304;11.896;2023-08-01T07:09:59;72401.78;;;-145.00;76.79
45345;BME280;31078;48.304;11.896;2023-08-01T07:12:26;72414.28;;;-145.00;76.54
45345;BME280;31078;48.304;11.896;2023-08-01T07:14:52;72424.69;;;-145.00;75.32
45345;BME280;31078;48.304;11.896;2023-08-01T07:17:19;72426.75;;;-145.00;75.17
45345;BME280;31078;48.304;11.896;2023-08-01T07:19:45;72426.75;;;-145.00;76.51
45345;BME280;31078;48.304;11.896;2023-08-01T07:22:13;72405.94;;;-145.00;76.75
45345;BME280;31078;48.304;11.896;2023-08-01T07:24:40;72387.22;;;-145.00;74.93
45345;BME280;31078;48.304;11.896;2023-08-01T07:27:06;72397.63;;;-145.00;74.50
45345;BME280;31078;48.304;11.896;2023-08-01T07:29:33;72376.81;;;-145.00;75.54
45345;BME280;31078;48.304;11.896;2023-08-01T07:31:59;72393.47;;;-145.00;74.61
45345;BME280;31078;48.304;11.896;2023-08-01T07:34:27;72376.81;;;-145.00;75.38
45345;BME280;31078;48.304;11.896;2023-08-01T07:36:57;72372.66;;;-145.00;74.70
45345;BME280;31078;48.304;11.896;2023-08-01T07:39:24;72372.66;;;-145.00;73.91
45345;BME280;31078;48.304;11.896;2023-08-01T07:41:51;72380.97;;;-145.00;73.24
45345;BME280;31078;48.304;11.896;2023-08-01T07:44:17;72374.72;;;-145.00;73.10
45345;BME280;31078;48.304;11.896;2023-08-01T07:46:44;72343.50;;;-145.00;72.53
45345;BME280;31078;48.304;11.896;2023-08-01T07:49:10;72314.38;;;-145.00;72.64
45345;BME280;31078;48.304;11.896;2023-08-01T07:51:40;72314.38;;;-145.00;71.85
45345;BME280;31078;48.304;11.896;2023-08-01T07:54:06;72312.28;;;-145.00;70.53
45345;BME280;31078;48.304;11.896;2023-08-01T07:56:39;72306.03;;;-145.00;69.95
45345;BME280;31078;48.304;11.896;2023-08-01T07:59:06;72353.91;;;-145.00;70.90
45345;BME280;31078;48.304;11.896;2023-08-01T08:01:38;72322.69;;;-145.00;71.96
45345;BME280;31078;48.304;11.896;2023-08-01T08:04:11;72320.59;;;-145.00;71.37
45345;BME280;31078;48.304;11.896;2023-08-01T08:06:42;72326.84;;;-145.00;71.11
45345;BME280;31078;48.304;11.896;2023-08-01T08:09:09;72303.97;;;-145.00;71.23
45345;BME280;31078;48.304;11.896;2023-08-01T08:12:04;72287.31;;;-145.00;70.57
45345;BME280;31078;48.304;11.896;2023-08-01T08:14:37;72272.72;;;-145.00;70.17
45345;BME280;31078;48.304;11.896;2023-08-01T08:17:04;72303.97;;;-145.00;68.72
45345;BME280;31078;48.304;11.896;2023-08-01T08:19:30;72272.72;;;-145.00;70.09
45345;BME280;31078;48.304;11.896;2023-08-01T08:21:57;72222.78;;;-145.00;68.72
45345;BME280;31078;48.304;11.896;2023-08-01T08:24:24;72191.56;;;-145.00;67.90
45345;BME280;31078;48.304;11.896;2023-08-01T08:26:51;72166.59;;;-145.00;67.07
45345;BME280;31078;48.304;11.896;2023-08-01T08:29:18;72160.34;;;-145.00;67.10
45345;BME280;31078;48.304;11.896;2023-08-01T08:31:44;72193.63;;;-145.00;66.75
45345;BME280;31078;48.304;11.896;2023-08-01T08:34:15;72164.50;;;-145.00;66.95
45345;BME280;31078;48.304;11.896;2023-08-01T08:36:42;72166.59;;;-145.00;66.11
45345;BME280;31078;48.304;11.896;2023-08-01T08:39:10;72172.81;;;-145.00;65.83
45345;BME280;31078;48.304;11.896;2023-08-01T08:41:38;72147.84;;;-145.00;65.36
45345;BME280;31078;48.304;11.896;2023-08-01T08:44:13;72131.19;;;-145.00;66.03
45345;BME280;31078;48.304;11.896;2023-08-01T08:46:43;72127.03;;;-145.00;66.55
45345;BME280;31078;48.304;11.896;2023-08-01T08:49:14;72149.94;;;-145.00;66.37
45345;BME280;31078;48.304;11.896;2023-08-01T08:51:43;72110.38;;;-145.00;67.24
45345;BME280;31078;48.304;11.896;2023-08-01T08:54:13;72112.47;;;-145.00;66.72
45345;BME280;31078;48.304;11.896;2023-08-01T08:56:47;72093.72;;;-145.00;65.69
45345;BME280;31078;48.304;11.896;2023-08-01T08:59:16;72077.09;;;-145.00;66.04
45345;BME280;31078;48.304;11.896;2023-08-01T09:01:42;72072.91;;;-145.00;64.94
45345;BME280;31078;48.304;11.896;2023-08-01T09:04:09;72108.31;;;-145.00;63.15
45345;BME280;31078;48.304;11.896;2023-08-01T09:06:39;72085.41;;;-145.00;64.39
45345;BME280;31078;48.304;11.896;2023-08-01T09:09:10;72102.06;;;-145.00;67.73
45345;BME280;31078;48.304;11.896;2023-08-01T09:11:43;72127.03;;;-145.00;61.08
45345;BME280;31078;48.304;11.896;2023-08-01T09:14:10;72093.72;;;-145.00;62.36
45345;BME280;31078;48.304;11.896;2023-08-01T09:16:41;72089.56;;;-145.00;60.58
45345;BME280;31078;48.304;11.896;2023-08-01T09:19:08;72072.91;;;-145.00;61.08
45345;BME280;31078;48.304;11.896;2023-08-01T09:21:36;72056.25;;;-145.00;59.86
45345;BME280;31078;48.304;11.896;2023-08-01T09:24:10;72020.88;;;-145.00;59.25
45345;BME280;31078;48.304;11.896;2023-08-01T09:26:36;72002.16;;;-145.00;59.26
45345;BME280;31078;48.304;11.896;2023-08-01T09:29:03;72002.16;;;-145.00;58.06
45345;BME280;31078;48.304;11.896;2023-08-01T09:31:31;71998.00;;;-145.00;58.37
45345;BME280;31078;48.304;11.896;2023-08-01T09:34:00;72000.06;;;-145.00;56.73
45345;BME280;31078;48.304;11.896;2023-08-01T09:36:27;71985.50;;;-145.00;55.48
45345;BME280;31078;48.304;11.896;2023-08-01T09:38:58;72006.31;;;-145.00;55.11
45345;BME280;31078;48.304;11.896;2023-08-01T09:41:24;71981.34;;;-145.00;55.65
45345;BME280;31078;48.304;11.896;2023-08-01T09:43:51;71981.34;;;-145.00;55.22
45345;BME280;31078;48.304;11.896;2023-08-01T09:46:18;71989.66;;;-145.00;53.87
45345;BME280;31078;48.304;11.896;2023-08-01T09:48:44;71973.00;;;-145.00;55.05
45345;BME280;31078;48.304;11.896;2023-08-01T09:51:14;72010.47;;;-145.00;54.81
45345;BME280;31078;48.304;11.896;2023-08-01T09:53:49;71985.50;;;-145.00;53.98
45345;BME280;31078;48.304;11.896;2023-08-01T09:56:20;72006.31;;;-145.00;54.63
45345;BME280;31078;48.304;11.896;2023-08-01T09:58:48;71985.50;;;-145.00;53.71
45345;BME280;31078;48.304;11.896;2023-08-01T10:01:15;71985.50;;;-145.00;53.65
45345;BME280;31078;48.304;11.896;2023-08-01T10:03:47;71977.19;;;-145.00;53.24
45345;BME280;31078;48.304;11.896;2023-08-01T10:06:17;71979.25;;;-145.00;53.29
45345;BME280;31078;48.304;11.896;2023-08-01T10:08:45;71995.91;;;-145.00;54.20
45345;BME280;31078;48.304;11.896;2023-08-01T10:11:16;72031.28;;;-145.00;53.28
45345;BME280;31078;48.304;11.896;2023-08-01T10:13:43;72000.06;;;-145.00;53.51
45345;BME280;31078;48.304;11.896;2023-08-01T10:16:10;71993.81;;;-145.00;52.74
45345;BME280;31078;48.304;11.896;2023-08-01T10:18:37;71977.19;;;-145.00;51.98
45345;BME280;31078;48.304;11.896;2023-08-01T10:21:05;72000.06;;;-145.00;52.72
45345;BME280;31078;48.304;11.896;2023-08-01T10:23:34;71998.00;;;-145.00;52.60
45345;BME280;31078;48.304;11.896;2023-08-01T10:26:04;72018.81;;;-145.00;52.59
45345;BME280;31078;48.304;11.896;2023-08-01T10:28:32;72089.56;;;-145.00;53.82
45345;BME280;31078;48.304;11.896;2023-08-01T10:31:09;72104.13;;;-145.00;55.66
45345;BME280;31078;48.304;11.896;2023-08-01T10:33:36;72152.00;;;-145.00;57.94
45345;BME280;31078;48.304;11.896;2023-08-01T10:36:12;72222.78;;;-145.00;59.34
45345;BME280;31078;48.304;11.896;2023-08-01T10:38:46;72326.84;;;-145.00;64.47
45345;BME280;31078;48.304;11.896;2023-08-01T10:41:21;72380.97;;;-145.00;66.38
45345;BME280;31078;48.304;11.896;2023-08-01T10:43:48;72410.13;;;-145.00;69.49
45345;BME280;31078;48.304;11.896;2023-08-01T10:46:14;72435.09;;;-145.00;71.46
45345;BME280;31078;48.304;11.896;2023-08-01T10:48:51;72458.00;;;-145.00;72.50
45345;BME280;31078;48.304;11.896;2023-08-01T10:51:18;72482.97;;;-145.00;74.81
45345;BME280;31078;48.304;11.896;2023-08-01T10:53:46;72482.97;;;-145.00;75.31
45345;BME280;31078;48.304;11.896;2023-08-01T10:56:17;72476.72;;;-145.00;77.53
45345;BME280;31078;48.304;11.896;2023-08-01T10:58:44;72455.91;;;-145.00;77.75
45345;BME280;31078;48.304;11.896;2023-08-01T11:01:11;72460.06;;;-145.00;78.11
45345;BME280;31078;48.304;11.896;2023-08-01T11:03:39;72433.00;;;-145.00;77.76
45345;BME280;31078;48.304;11.896;2023-08-01T11:06:07;72426.75;;;-145.00;77.88
45345;BME280;31078;48.304;11.896;2023-08-01T11:08:35;72426.75;;;-145.00;77.98
45345;BME280;31078;48.304;11.896;2023-08-01T11:11:04;72439.25;;;-145.00;77.45
45345;BME280;31078;48.304;11.896;2023-08-01T11:13:31;72430.94;;;-145.00;79.23
45345;BME280;31078;48.304;11.896;2023-08-01T11:16:01;72453.81;;;-145.00;79.68
45345;BME280;31078;48.304;11.896;2023-08-01T11:18:27;72451.75;;;-145.00;79.71
45345;BME280;31078;48.304;11.896;2023-08-01T11:20:54;72439.25;;;-145.00;79.34
45345;BME280;31078;48.304;11.896;2023-08-01T11:23:27;72424.69;;;-145.00;77.50
45345;BME280;31078;48.304;11.896;2023-08-01T11:25:54;72420.53;;;-145.00;76.66
45345;BME280;31078;48.304;11.896;2023-08-01T11:28:23;72405.94;;;-145.00;77.32
45345;BME280;31078;48.304;11.896;2023-08-01T11:30:50;72383.06;;;-145.00;75.95
45345;BME280;31078;48.304;11.896;2023-08-01T11:33:18;72372.66;;;-145.00;75.28
45345;BME280;31078;48.304;11.896;2023-08-01T11:35:50;72380.97;;;-145.00;72.24
45345;BME280;31078;48.304;11.896;2023-08-01T11:38:17;72335.19;;;-145.00;72.70
45345;BME280;31078;48.304;11.896;2023-08-01T11:40:44;72299.78;;;-145.00;71.93
45345;BME280;31078;48.304;11.896;2023-08-01T11:43:11;72276.91;;;-145.00;69.64
45345;BME280;31078;48.304;11.896;2023-08-01T11:45:49;72285.22;;;-145.00;68.35
45345;BME280;31078;48.304;11.896;2023-08-01T11:48:16;72287.31;;;-145.00;69.01
45345;BME280;31078;48.304;11.896;2023-08-01T11:50:44;72285.22;;;-145.00;69.96
45345;BME280;31078;48.304;11.896;2023-08-01T11:53:18;72264.41;;;-145.00;68.25
45345;BME280;31078;48.304;11.896;2023-08-01T11:55:44;72276.91;;;-145.00;68.65
45345;BME280;31078;48.304;11.896;2023-08-01T11:58:11;72276.91;;;-145.00;67.34
45345;BME280;31078;48.304;11.896;2023-08-01T12:00:39;72287.31;;;-145.00;65.23
45345;BME280;31078;48.304;11.896;2023-08-01T12:03:08;72285.22;;;-145.00;65.90
45345;BME280;31078;48.304;11.896;2023-08-01T12:05:38;72297.72;;;-145.00;67.76
45345;BME280;31078;48.304;11.896;2023-08-01T12:08:11;72289.38;;;-145.00;65.91
45345;BME280;31078;48.304;11.896;2023-08-01T12:10:38;72299.78;;;-145.00;66.44
45345;BME280;31078;48.304;11.896;2023-08-01T12:13:05;72297.72;;;-145.00;64.94
45345;BME280;31078;48.304;11.896;2023-08-01T12:15:31;72314.38;;;-145.00;66.58
45345;BME280;31078;48.304;11.896;2023-08-01T12:18:00;72339.34;;;-145.00;67.29
45345;BME280;31078;48.304;11.896;2023-08-01T12:20:27;72353.91;;;-145.00;67.81
45345;BME280;31078;48.304;11.896;2023-08-01T12:22:54;72349.75;;;-145.00;68.02
45345;BME280;31078;48.304;11.896;2023-08-01T12:25:20;72356.00;;;-145.00;68.61
45345;BME280;31078;48.304;11.896;2023-08-01T12:27:47;72360.16;;;-145.00;68.14
45345;BME280;31078;48.304;11.896;2023-08-01T12:30:13;72345.59;;;-145.00;68.39
45345;BME280;31078;48.304;11.896;2023-08-01T12:32:40;72339.34;;;-145.00;68.30